Time;durP1;ratioP1;P1;durP2;ratioP2;P2;SDS_P1;SDS_P2;PMS_P1;PMS_P2;Temp;Humidity;BMP_temperature;BMP_pressure;BME280_temperature;BME280_humidity;BME280_pressure;Samples;Min_cycle;Max_cycle;Signal;HPM_P1;HPM_P2
2021/03/28 00:03:55;;;;;;;4.57;1.25;;;7.70;99.90;;;;;;10438851;28;20052;-50
2021/03/28 00:09:33;;;;;;;3.03;0.80;;;7.70;99.90;;;;;;10440993;28;20055;-50
2021/03/28 00:14:57;;;;;;;4.55;0.88;;;7.70;99.90;;;;;;10437194;28;20045;-50
2021/03/28 00:20:18;;;;;;;2.03;0.70;;;7.70;99.90;;;;;;10440669;28;20044;-49
2021/03/28 00:25:54;;;;;;;2.63;0.20;;;7.80;99.90;;;;;;10440386;28;20136;-49
2021/03/28 00:31:28;;;;;;;2.50;0.43;;;7.80;99.90;;;;;;10438760;28;20098;-50
2021/03/28 00:36:55;;;;;;;15.85;0.68;;;7.80;99.90;;;;;;10432995;28;20380;-49
2021/03/28 00:42:33;;;;;;;7.57;0.85;;;7.80;99.90;;;;;;10439823;28;20120;-50
2021/03/28 00:48:33;;;;;;;2.67;0.63;;;7.80;99.90;;;;;;10434420;28;20555;-49
2021/03/28 00:54:00;;;;;;;;;;;7.70;99.90;;;;;;10437276;28;20232;-49
2021/03/28 00:59:27;;;;;;;2.38;0.77;;;7.70;99.90;;;;;;10413167;28;20004;-50
2021/03/28 01:05:00;;;;;;;1.38;0.30;;;7.70;99.90;;;;;;10419888;28;20033;-50
2021/03/28 01:10:40;;;;;;;2.60;0.70;;;7.60;99.90;;;;;;10439317;28;20045;-49
2021/03/28 01:16:19;;;;;;;;;;;7.50;99.90;;;;;;10435072;28;20051;-49
2021/03/28 01:21:55;;;;;;;9.50;2.10;;;7.40;99.90;;;;;;10434242;28;19909;-50
2021/03/28 01:27:31;;;;;;;0.98;0.85;;;7.40;99.90;;;;;;10425867;28;20558;-49
2021/03/28 01:33:09;;;;;;;0.98;0.50;;;7.30;99.90;;;;;;10391066;28;20029;-49
2021/03/28 01:38:42;;;;;;;3.95;1.05;;;7.30;99.90;;;;;;10387368;28;20087;-49
2021/03/28 01:44:39;;;;;;;7.75;1.10;;;7.30;99.90;;;;;;10406748;28;20580;-50
2021/03/28 01:50:15;;;;;;;4.93;0.55;;;7.30;99.90;;;;;;10396689;28;20441;-49
2021/03/28 01:55:58;;;;;;;0.88;0.20;;;7.30;99.90;;;;;;10437254;28;20032;-49
2021/03/28 02:01:26;;;;;;;21.23;2.42;;;7.30;99.90;;;;;;10415431;28;20022;-49
2021/03/28 02:07:05;;;;;;;3.65;0.80;;;7.20;99.90;;;;;;10422698;28;20050;-49
2021/03/28 02:12:52;;;;;;;19.92;1.05;;;7.20;99.90;;;;;;10431805;28;20090;-49
2021/03/28 02:18:28;;;;;;;4.10;0.75;;;7.20;99.90;;;;;;10446249;28;20048;-49
2021/03/28 02:23:56;;;;;;;2.83;0.40;;;7.10;99.90;;;;;;10445029;28;20090;-50
2021/03/28 02:29:41;;;;;;;1.55;0.52;;;7.10;99.90;;;;;;10410246;28;20037;-49
2021/03/28 02:35:42;;;;;;;2.28;1.00;;;7.10;99.90;;;;;;10449217;27;20468;-49
2021/03/28 02:41:31;;;;;;;2.25;1.27;;;7.00;99.90;;;;;;10420430;28;20512;-49
2021/03/28 02:47:11;;;;;;;6.97;0.70;;;7.00;99.90;;;;;;10446322;28;20405;-49
2021/03/28 02:52:39;;;;;;;3.33;1.23;;;7.00;99.90;;;;;;10448665;27;20304;-49
2021/03/28 02:58:18;;;;;;;2.30;1.15;;;7.10;99.90;;;;;;10448599;27;20452;-49
2021/03/28 03:04:10;;;;;;;3.35;1.50;;;7.10;99.90;;;;;;10446337;27;20365;-49
2021/03/28 03:09:43;;;;;;;3.17;1.00;;;7.00;99.90;;;;;;10447490;28;20053;-49
2021/03/28 03:15:38;;;;;;;1.88;0.77;;;7.00;99.90;;;;;;10445966;27;20674;-50
2021/03/28 03:21:17;;;;;;;5.70;1.38;;;6.90;99.90;;;;;;10444057;28;20033;-49
2021/03/28 03:27:09;;;;;;;4.50;1.10;;;6.80;99.90;;;;;;10418426;28;20542;-49
2021/03/28 03:33:09;;;;;;;1.58;0.40;;;6.80;99.90;;;;;;10398927;28;20037;-49
2021/03/28 03:39:09;;;;;;;5.95;0.85;;;6.70;99.90;;;;;;10428785;28;20029;-49
2021/03/28 03:45:07;;;;;;;2.63;1.33;;;6.70;99.90;;;;;;10428161;28;20507;-49
2021/03/28 03:50:50;;;;;;;1.73;0.73;;;6.80;99.90;;;;;;10439654;28;20116;-49
2021/03/28 03:56:31;;;;;;;2.25;0.70;;;6.80;99.90;;;;;;10440296;28;20049;-49
2021/03/28 04:02:16;;;;;;;2.25;0.65;;;6.90;99.90;;;;;;10434588;28;20039;-49
2021/03/28 04:08:06;;;;;;;5.30;0.80;;;6.90;99.90;;;;;;10439385;28;20036;-49
2021/03/28 04:13:45;;;;;;;9.40;2.92;;;6.80;99.90;;;;;;10439684;28;20064;-49
2021/03/28 04:19:42;;;;;;;2.77;0.60;;;6.90;99.90;;;;;;10438541;28;20045;-49
2021/03/28 04:25:03;;;;;;;4.70;0.90;;;6.90;99.90;;;;;;10435897;28;20037;-49
2021/03/28 04:30:52;;;;;;;4.10;0.70;;;6.90;99.90;;;;;;10439966;28;20044;-49
2021/03/28 04:36:37;;;;;;;3.55;0.93;;;6.90;99.90;;;;;;10438100;28;20041;-49
2021/03/28 04:42:33;;;;;;;7.28;0.70;;;6.80;99.90;;;;;;10433653;28;20033;-49
2021/03/28 04:48:08;;;;;;;7.00;1.02;;;6.80;99.90;;;;;;10426779;28;20040;-49
2021/03/28 04:53:48;;;;;;;2.03;0.98;;;6.90;99.90;;;;;;10431199;28;20034;-49
2021/03/28 04:59:39;;;;;;;2.40;0.60;;;6.90;99.90;;;;;;10412581;28;20041;-49
2021/03/28 05:05:22;;;;;;;1.13;0.47;;;7.00;99.90;;;;;;10426871;28;20041;-49
2021/03/28 05:10:54;;;;;;;2.47;0.65;;;7.20;99.90;;;;;;10437298;28;20068;-49
2021/03/28 05:16:44;;;;;;;3.20;1.13;;;7.10;99.90;;;;;;10437198;28;20045;-49
2021/03/28 05:22:36;;;;;;;5.75;0.60;;;7.10;99.90;;;;;;10427868;28;20033;-49
2021/03/28 05:28:15;;;;;;;6.88;0.57;;;7.20;99.90;;;;;;10429372;28;20355;-49
2021/03/28 05:34:00;;;;;;;3.57;0.67;;;7.30;99.90;;;;;;10436378;28;20045;-49
2021/03/28 05:39:24;;;;;;;1.65;0.70;;;7.50;99.90;;;;;;10429073;28;20465;-49
2021/03/28 05:45:20;;;;;;;4.30;0.80;;;7.50;99.90;;;;;;10436990;28;20048;-49
2021/03/28 05:51:08;;;;;;;1.00;0.40;;;7.60;99.90;;;;;;10435617;28;20051;-49
2021/03/28 05:57:07;;;;;;;1.23;0.45;;;7.50;99.90;;;;;;10424625;28;20043;-49
2021/03/28 06:02:53;;;;;;;3.00;0.50;;;7.60;99.90;;;;;;10435379;28;20049;-49
2021/03/28 06:08:17;;;;;;;4.07;0.70;;;7.60;99.90;;;;;;10430099;28;20041;-49
2021/03/28 06:14:09;;;;;;;0.50;0.20;;;7.60;99.90;;;;;;10409615;28;20045;-49
2021/03/28 06:19:54;;;;;;;5.18;0.60;;;7.70;99.90;;;;;;10410015;28;20106;-49
2021/03/28 06:25:54;;;;;;;1.55;0.52;;;7.70;99.90;;;;;;10436872;28;20124;-49
2021/03/28 06:31:33;;;;;;;1.10;0.63;;;7.60;99.90;;;;;;10411871;28;20128;-49
2021/03/28 06:37:19;;;;;;;;;;;7.60;99.90;;;;;;10430620;28;20246;-49
2021/03/28 06:42:58;;;;;;;2.03;0.68;;;7.60;99.90;;;;;;10434588;28;19955;-49
2021/03/28 06:48:22;;;;;;;2.10;0.57;;;7.80;99.90;;;;;;10411693;28;20046;-49
2021/03/28 06:54:17;;;;;;;2.60;1.10;;;8.00;99.90;;;;;;10416417;28;20068;-49
2021/03/28 07:00:10;;;;;;;1.73;0.82;;;8.30;99.90;;;;;;10423844;28;20037;-49
2021/03/28 07:05:43;;;;;;;1.83;0.55;;;8.60;99.90;;;;;;10405199;28;20083;-49
2021/03/28 07:11:23;;;;;;;2.67;0.85;;;8.70;99.90;;;;;;10434117;28;20049;-49
2021/03/28 07:17:02;;;;;;;3.67;1.10;;;8.80;99.90;;;;;;10428860;28;20084;-49
2021/03/28 07:22:40;;;;;;;4.85;1.20;;;8.70;99.90;;;;;;10422786;28;20029;-49
2021/03/28 07:28:36;;;;;;;8.18;1.40;;;8.90;99.90;;;;;;10440298;28;20520;-49
2021/03/28 07:34:16;;;;;;;4.63;1.48;;;9.10;99.90;;;;;;10436922;28;20029;-49
2021/03/28 07:40:02;;;;;;;2.40;1.08;;;9.20;99.90;;;;;;10441098;28;20037;-50
2021/03/28 07:45:41;;;;;;;5.20;1.15;;;9.50;99.90;;;;;;10413754;28;20072;-49
2021/03/28 07:51:02;;;;;;;;;;;9.70;99.90;;;;;;10440044;28;20053;-49
2021/03/28 07:56:32;;;;;;;4.65;1.25;;;9.90;99.90;;;;;;10391271;28;19910;-49
2021/03/28 08:02:17;;;;;;;4.10;1.17;;;9.90;99.90;;;;;;10424767;28;20317;-49
2021/03/28 08:08:16;;;;;;;1.65;0.80;;;10.10;99.90;;;;;;10429607;27;20029;-49
2021/03/28 08:14:10;;;;;;;3.58;1.30;;;10.30;99.90;;;;;;10434530;28;20068;-49
2021/03/28 08:19:55;;;;;;;2.28;0.80;;;10.30;99.90;;;;;;10436633;28;20055;-49
2021/03/28 08:25:35;;;;;;;6.45;0.85;;;10.20;99.90;;;;;;10433063;28;20068;-50
2021/03/28 08:31:18;;;;;;;4.15;0.80;;;10.30;99.90;;;;;;10426549;28;20041;-49
2021/03/28 08:36:57;;;;;;;2.10;0.68;;;10.30;99.90;;;;;;10437176;28;20033;-49
2021/03/28 08:43:08;;;;;;;1.40;0.90;;;10.40;99.90;;;;;;10418757;28;20045;-49
2021/03/28 08:48:48;;;;;;;3.55;0.80;;;10.60;99.90;;;;;;10406769;28;20127;-49
2021/03/28 08:54:31;;;;;;;6.30;2.05;;;11.10;99.90;;;;;;10439191;28;20037;-49
2021/03/28 09:00:13;;;;;;;1.33;0.50;;;11.40;99.90;;;;;;10434297;28;20552;-49
2021/03/28 09:05:45;;;;;;;1.98;0.60;;;12.00;99.90;;;;;;10436187;28;20060;-49
2021/03/28 09:11:15;;;;;;;2.42;1.08;;;11.90;99.90;;;;;;10420355;28;20528;-49
2021/03/28 09:16:49;;;;;;;3.05;0.68;;;11.80;99.90;;;;;;10433437;28;20053;-49
2021/03/28 09:22:32;;;;;;;2.03;1.10;;;11.60;99.90;;;;;;10437425;28;20040;-49
2021/03/28 09:28:19;;;;;;;1.00;0.50;;;11.60;99.90;;;;;;10416341;28;20044;-49
2021/03/28 09:34:13;;;;;;;4.75;1.40;;;11.60;99.90;;;;;;10415021;28;20090;-49
2021/03/28 09:40:25;;;;;;;1.98;1.08;;;11.60;99.90;;;;;;10423093;28;20540;-49
2021/03/28 09:46:08;;;;;;;1.52;0.60;;;11.60;99.90;;;;;;10370585;28;20040;-49
2021/03/28 09:51:41;;;;;;;6.85;1.10;;;11.50;99.90;;;;;;10393473;28;20095;-49
2021/03/28 09:57:08;;;;;;;5.43;1.63;;;11.50;99.90;;;;;;10375753;28;20235;-49
2021/03/28 10:02:40;;;;;;;5.60;1.10;;;11.50;99.90;;;;;;10401878;28;20068;-49
2021/03/28 10:08:04;;;;;;;2.00;0.65;;;11.60;99.90;;;;;;10430449;28;20510;-49
2021/03/28 10:13:46;;;;;;;1.23;0.55;;;11.40;99.90;;;;;;10436690;28;20040;-50
2021/03/28 10:19:14;;;;;;;0.77;0.35;;;11.40;99.90;;;;;;10429164;28;20049;-49
2021/03/28 10:25:00;;;;;;;2.33;0.63;;;11.40;99.90;;;;;;10432564;28;20048;-49
2021/03/28 10:30:43;;;;;;;3.92;0.55;;;11.20;99.90;;;;;;10402658;28;20057;-49
2021/03/28 10:37:04;;;;;;;3.60;0.50;;;11.20;99.90;;;;;;10403982;28;20041;-49
2021/03/28 10:42:37;;;;;;;1.85;0.40;;;11.20;99.90;;;;;;10398950;28;20073;-49
2021/03/28 10:48:35;;;;;;;2.17;0.75;;;11.10;99.90;;;;;;10446552;28;20416;-49
2021/03/28 10:54:05;;;;;;;3.22;0.40;;;11.00;99.90;;;;;;10443691;28;20048;-49
2021/03/28 11:00:02;;;;;;;3.92;0.68;;;11.10;99.90;;;;;;10442407;28;20036;-49
2021/03/28 11:05:35;;;;;;;1.75;0.45;;;11.20;99.90;;;;;;10403531;28;20116;-49
2021/03/28 11:11:11;;;;;;;2.15;0.77;;;11.20;99.90;;;;;;10435982;28;20322;-49
2021/03/28 11:16:57;;;;;;;5.15;0.68;;;11.20;99.90;;;;;;10440347;28;20496;-49
2021/03/28 11:23:05;;;;;;;1.33;0.40;;;11.30;99.90;;;;;;10462426;28;20062;-49
2021/03/28 11:28:53;;;;;;;3.92;0.73;;;11.40;99.90;;;;;;10431022;28;20045;-49
2021/03/28 11:34:41;;;;;;;2.22;0.60;;;11.40;99.90;;;;;;10408136;28;20491;-49
2021/03/28 11:40:17;;;;;;;2.05;0.43;;;11.50;99.90;;;;;;10423806;28;20033;-49
2021/03/28 11:46:04;;;;;;;3.15;0.40;;;11.40;99.90;;;;;;10439894;28;20041;-49
2021/03/28 11:51:31;;;;;;;3.00;0.52;;;11.50;99.90;;;;;;10445944;28;20070;-49
2021/03/28 11:57:04;;;;;;;2.85;0.95;;;11.60;99.90;;;;;;10471363;28;20036;-49
2021/03/28 12:02:30;;;;;;;2.47;0.70;;;11.50;99.90;;;;;;10426747;28;20124;-50
2021/03/28 12:08:06;;;;;;;4.00;0.80;;;11.60;99.90;;;;;;10426551;28;20473;-49
2021/03/28 12:13:35;;;;;;;1.00;0.40;;;11.60;99.90;;;;;;10429346;28;20032;-49
2021/03/28 12:18:58;;;;;;;2.05;0.82;;;11.60;99.90;;;;;;10438600;28;20381;-49
2021/03/28 12:24:24;;;;;;;4.13;0.57;;;11.80;99.90;;;;;;10457944;28;20125;-49
2021/03/28 12:29:47;;;;;;;4.15;1.15;;;11.80;99.90;;;;;;10415071;28;20174;-49
2021/03/28 12:35:23;;;;;;;1.73;0.82;;;12.00;99.90;;;;;;10460285;28;20705;-49
2021/03/28 12:40:46;;;;;;;1.75;0.63;;;12.10;99.90;;;;;;10450269;28;24770;-49
2021/03/28 12:46:26;;;;;;;1.13;0.60;;;12.10;99.90;;;;;;10400871;28;20148;-49
2021/03/28 12:51:59;;;;;;;3.10;0.73;;;12.10;99.90;;;;;;10451784;28;20094;-49
2021/03/28 12:57:32;;;;;;;5.95;1.52;;;12.10;99.90;;;;;;10437563;28;20044;-49
2021/03/28 13:02:56;;;;;;;3.25;1.10;;;12.20;99.90;;;;;;10424645;28;20029;-49
2021/03/28 13:08:20;;;;;;;2.22;0.60;;;12.10;99.90;;;;;;10439467;28;20090;-49
2021/03/28 13:13:46;;;;;;;1.02;0.65;;;12.00;99.90;;;;;;10433880;28;20066;-49
2021/03/28 13:19:24;;;;;;;1.33;0.47;;;12.00;99.90;;;;;;10435596;28;20068;-49
2021/03/28 13:24:45;;;;;;;12.05;1.40;;;11.90;99.90;;;;;;10435687;28;20131;-49
2021/03/28 13:30:14;;;;;;;2.92;0.47;;;11.80;99.90;;;;;;10404316;28;20140;-49
2021/03/28 13:35:39;;;;;;;1.80;0.45;;;11.90;99.90;;;;;;10414728;28;20491;-49
2021/03/28 13:41:05;;;;;;;1.83;1.10;;;11.90;99.90;;;;;;10423875;28;20037;-49
2021/03/28 13:46:26;;;;;;;4.53;0.60;;;12.10;99.90;;;;;;10430574;28;20635;-49
2021/03/28 13:52:07;;;;;;;6.57;1.02;;;12.30;99.90;;;;;;10436044;28;20075;-49
2021/03/28 13:57:32;;;;;;;3.22;0.85;;;12.50;99.90;;;;;;10420185;28;20052;-49
2021/03/28 14:02:55;;;;;;;1.70;0.50;;;12.80;99.90;;;;;;10394937;28;20025;-49
2021/03/28 14:08:20;;;;;;;1.83;1.00;;;13.00;99.90;;;;;;10390137;28;20052;-49
2021/03/28 14:13:41;;;;;;;3.05;1.00;;;12.80;99.90;;;;;;10436046;28;20087;-49
2021/03/28 14:19:35;;;;;;;3.10;0.30;;;13.00;99.90;;;;;;10433604;28;20505;-49
2021/03/28 14:24:59;;;;;;;3.88;1.08;;;13.40;99.90;;;;;;10436935;28;20418;-49
2021/03/28 14:30:34;;;;;;;1.45;0.68;;;13.10;99.90;;;;;;10435138;28;20079;-49
2021/03/28 14:36:17;;;;;;;1.83;0.70;;;13.20;99.90;;;;;;10436341;28;20059;-49
2021/03/28 14:41:48;;;;;;;1.60;0.35;;;13.20;99.90;;;;;;10428709;28;20042;-49
2021/03/28 14:47:24;;;;;;;3.13;1.23;;;13.00;99.90;;;;;;10394553;28;20261;-49
2021/03/28 14:52:54;;;;;;;5.95;0.77;;;12.90;99.90;;;;;;10430642;28;20037;-49
2021/03/28 14:58:49;;;;;;;2.70;0.45;;;12.80;99.90;;;;;;10425185;28;20040;-49
2021/03/28 15:04:47;;;;;;;8.68;0.98;;;12.70;99.90;;;;;;10415118;28;20106;-49
2021/03/28 15:10:31;;;;;;;1.45;0.60;;;12.60;99.90;;;;;;10429624;28;20088;-49
2021/03/28 15:16:08;;;;;;;2.10;0.65;;;12.60;99.90;;;;;;10430348;28;20102;-49
2021/03/28 15:21:54;;;;;;;2.10;0.60;;;12.70;99.90;;;;;;10440772;28;20043;-49
2021/03/28 15:27:37;;;;;;;13.15;5.43;;;12.50;99.90;;;;;;10437759;28;20029;-49
2021/03/28 15:33:24;;;;;;;3.75;0.55;;;12.60;99.90;;;;;;10410068;28;20116;-49
2021/03/28 15:39:00;;;;;;;2.45;0.45;;;12.50;99.90;;;;;;10401675;28;20040;-49
2021/03/28 15:44:38;;;;;;;3.67;1.17;;;12.50;99.90;;;;;;10441746;28;20041;-49
2021/03/28 15:50:24;;;;;;;4.18;1.02;;;12.50;99.90;;;;;;10430636;28;20172;-49
2021/03/28 15:56:02;;;;;;;6.28;0.43;;;12.60;99.90;;;;;;10427936;28;20068;-49
2021/03/28 16:01:47;;;;;;;2.70;0.63;;;12.60;99.90;;;;;;10440888;28;20086;-49
2021/03/28 16:07:19;;;;;;;4.30;1.70;;;12.50;99.90;;;;;;10440953;28;20036;-49
2021/03/28 16:12:58;;;;;;;5.68;1.60;;;12.40;99.90;;;;;;10441534;28;20134;-49
2021/03/28 16:18:49;;;;;;;2.22;0.60;;;12.30;99.90;;;;;;10429586;28;20041;-49
2021/03/28 16:24:32;;;;;;;4.20;0.82;;;12.40;99.90;;;;;;10417670;28;20032;-49
2021/03/28 16:30:12;;;;;;;4.05;1.00;;;12.30;99.90;;;;;;10423281;28;20156;-49
2021/03/28 16:35:48;;;;;;;2.78;0.40;;;12.30;99.90;;;;;;10426606;28;20436;-49
2021/03/28 16:41:28;;;;;;;1.05;0.40;;;12.30;99.90;;;;;;10428616;28;20431;-49
2021/03/28 16:46:52;;;;;;;;;;;12.20;99.90;;;;;;10434076;28;20056;-49
2021/03/28 16:52:23;;;;;;;2.10;0.50;;;12.30;99.90;;;;;;10410741;28;20317;-49
2021/03/28 16:57:57;;;;;;;7.40;0.60;;;12.30;99.90;;;;;;10402920;28;20033;-49
2021/03/28 17:03:26;;;;;;;4.35;1.23;;;12.10;99.90;;;;;;10437500;28;20051;-49
2021/03/28 17:09:04;;;;;;;4.55;1.73;;;12.10;99.90;;;;;;10438680;28;20036;-49
2021/03/28 17:14:59;;;;;;;6.03;0.80;;;12.10;99.90;;;;;;10432379;28;20853;-49
2021/03/28 17:20:24;;;;;;;1.20;0.47;;;12.00;99.90;;;;;;10409622;28;20489;-49
2021/03/28 17:25:48;;;;;;;2.35;0.60;;;12.00;99.90;;;;;;10423940;28;20067;-49
2021/03/28 17:31:18;;;;;;;6.88;1.00;;;11.90;99.90;;;;;;10437019;28;20131;-49
2021/03/28 17:36:50;;;;;;;16.10;4.20;;;11.90;99.90;;;;;;10434923;28;20591;-49
2021/03/28 17:42:29;;;;;;;5.03;1.73;;;11.90;99.90;;;;;;10429040;28;20036;-49
2021/03/28 17:47:59;;;;;;;1.80;0.90;;;11.90;99.90;;;;;;10430306;28;20037;-49
2021/03/28 17:53:20;;;;;;;6.85;0.90;;;11.90;99.90;;;;;;10437276;28;20276;-49
2021/03/28 17:58:54;;;;;;;0.70;0.40;;;11.80;99.90;;;;;;10417809;28;20450;-49
2021/03/28 18:04:26;;;;;;;2.10;0.80;;;11.80;99.90;;;;;;10427909;28;20333;-49
2021/03/28 18:09:58;;;;;;;1.35;0.55;;;11.70;99.90;;;;;;10429656;28;20033;-49
2021/03/28 18:15:22;;;;;;;0.50;0.28;;;11.60;99.90;;;;;;10423650;28;20033;-49
2021/03/28 18:20:44;;;;;;;7.30;1.25;;;11.50;99.90;;;;;;10384944;28;20049;-49
2021/03/28 18:26:31;;;;;;;1.30;0.47;;;11.50;99.90;;;;;;10414547;28;20033;-49
2021/03/28 18:32:04;;;;;;;3.80;0.68;;;11.30;99.90;;;;;;10401668;28;20041;-49
2021/03/28 18:37:34;;;;;;;5.45;0.35;;;11.30;99.90;;;;;;10396678;28;20122;-49
2021/03/28 18:43:03;;;;;;;2.47;0.43;;;11.20;99.90;;;;;;10427353;28;20056;-49
2021/03/28 18:48:28;;;;;;;1.13;0.30;;;11.30;99.90;;;;;;10419728;28;20048;-49
2021/03/28 18:53:52;;;;;;;2.15;0.50;;;11.20;99.90;;;;;;10402809;28;20059;-49
2021/03/28 18:59:18;;;;;;;3.25;1.40;;;11.00;99.90;;;;;;10408642;28;21431;-49
2021/03/28 19:04:39;;;;;;;3.17;1.30;;;11.00;99.90;;;;;;10430145;28;20033;-49
2021/03/28 19:10:05;;;;;;;2.10;0.65;;;11.00;99.90;;;;;;10395092;28;20426;-49
2021/03/28 19:15:31;;;;;;;1.70;0.47;;;10.80;99.90;;;;;;10390510;28;20114;-49
2021/03/28 19:21:01;;;;;;;1.65;0.80;;;10.80;99.90;;;;;;10405560;28;20049;-49
2021/03/28 19:26:25;;;;;;;5.28;0.50;;;10.80;99.90;;;;;;10405999;28;20048;-49
2021/03/28 19:31:52;;;;;;;4.80;0.73;;;10.80;99.90;;;;;;10372074;28;20057;-49
2021/03/28 19:37:24;;;;;;;1.45;0.60;;;10.60;99.90;;;;;;10392006;28;20033;-49
2021/03/28 19:42:57;;;;;;;3.15;0.93;;;10.60;99.90;;;;;;10370542;28;20073;-49
2021/03/28 19:48:28;;;;;;;4.80;0.55;;;10.50;99.90;;;;;;10380937;28;20030;-49
2021/03/28 19:54:00;;;;;;;3.20;1.00;;;10.50;99.90;;;;;;10397293;28;20040;-49
2021/03/28 19:59:32;;;;;;;3.83;0.63;;;10.50;99.90;;;;;;10377986;28;20048;-49
2021/03/28 20:05:30;;;;;;;4.72;1.42;;;10.50;99.90;;;;;;10356510;28;20046;-49
2021/03/28 20:11:14;;;;;;;1.85;0.68;;;10.50;99.90;;;;;;10369924;28;20416;-49
2021/03/28 20:16:37;;;;;;;1.20;0.50;;;10.60;99.90;;;;;;10388125;28;20036;-49
2021/03/28 20:22:12;;;;;;;0.95;0.40;;;10.60;99.90;;;;;;10374337;28;20037;-49
2021/03/28 20:27:38;;;;;;;14.60;1.73;;;10.50;99.90;;;;;;10380836;28;20437;-49
2021/03/28 20:32:59;;;;;;;3.58;1.10;;;10.50;99.90;;;;;;10398556;28;20037;-49
2021/03/28 20:38:21;;;;;;;1.67;0.73;;;10.60;99.90;;;;;;10393473;28;20041;-49
2021/03/28 20:43:50;;;;;;;1.80;0.50;;;10.50;99.90;;;;;;10402362;28;20509;-49
2021/03/28 20:49:14;;;;;;;3.40;0.98;;;10.40;99.90;;;;;;10389921;28;20041;-49
2021/03/28 20:54:37;;;;;;;3.97;0.70;;;10.50;99.90;;;;;;10412156;28;20484;-49
2021/03/28 20:59:58;;;;;;;1.40;0.52;;;10.50;99.90;;;;;;10392766;28;20562;-49
2021/03/28 21:05:24;;;;;;;5.50;0.60;;;10.40;99.90;;;;;;10405890;28;20033;-49
2021/03/28 21:10:51;;;;;;;2.67;1.10;;;10.40;99.90;;;;;;10388192;28;20076;-49
2021/03/28 21:16:12;;;;;;;2.13;1.00;;;10.30;99.90;;;;;;10401830;28;20052;-49
2021/03/28 21:21:33;;;;;;;6.18;1.02;;;10.30;99.90;;;;;;10409402;28;20566;-49
2021/03/28 21:27:03;;;;;;;1.75;1.02;;;10.20;99.90;;;;;;10402526;28;21523;-49
2021/03/28 21:32:24;;;;;;;1.65;0.60;;;10.20;99.90;;;;;;10395919;28;20053;-49
2021/03/28 21:37:52;;;;;;;8.88;1.00;;;10.30;99.90;;;;;;10413354;28;20049;-50
2021/03/28 21:43:13;;;;;;;7.63;1.40;;;10.20;99.90;;;;;;10402909;28;20045;-49
2021/03/28 21:48:46;;;;;;;0.95;0.40;;;10.20;99.90;;;;;;10407793;28;20037;-49
2021/03/28 21:54:09;;;;;;;2.63;1.05;;;10.10;99.90;;;;;;10408368;28;20046;-49
2021/03/28 21:59:30;;;;;;;2.53;1.27;;;10.10;99.90;;;;;;10385834;28;20048;-49
2021/03/28 22:04:51;;;;;;;4.85;1.20;;;10.10;99.90;;;;;;10406595;28;20060;-49
2021/03/28 22:10:14;;;;;;;2.47;0.68;;;10.10;99.90;;;;;;10409008;28;20098;-49
2021/03/28 22:15:35;;;;;;;2.17;0.60;;;10.00;99.90;;;;;;10389572;28;20390;-49
2021/03/28 22:21:04;;;;;;;1.63;0.45;;;10.00;99.90;;;;;;10398717;28;20060;-49
2021/03/28 22:26:26;;;;;;;4.30;0.60;;;9.90;99.90;;;;;;10406479;28;20029;-49
2021/03/28 22:31:53;;;;;;;4.70;0.90;;;9.80;99.90;;;;;;10415865;28;20488;-49
2021/03/28 22:37:22;;;;;;;2.65;0.60;;;9.80;99.90;;;;;;10400797;28;20555;-49
2021/03/28 22:42:46;;;;;;;2.20;0.80;;;9.80;99.90;;;;;;10399192;28;20039;-49
2021/03/28 22:48:08;;;;;;;5.18;0.80;;;9.80;99.90;;;;;;10413070;28;20037;-49
2021/03/28 22:53:30;;;;;;;0.90;0.35;;;9.80;99.90;;;;;;10391755;28;20042;-49
2021/03/28 22:58:52;;;;;;;2.40;0.80;;;9.70;99.90;;;;;;10394468;28;20032;-49
2021/03/28 23:04:13;;;;;;;1.17;0.55;;;9.60;99.90;;;;;;10412919;28;20041;-49
2021/03/28 23:09:41;;;;;;;2.03;0.60;;;9.50;99.90;;;;;;10406338;28;20048;-49
2021/03/28 23:15:06;;;;;;;1.58;0.82;;;9.40;99.90;;;;;;10410853;28;20127;-49
2021/03/28 23:20:41;;;;;;;7.22;0.80;;;9.40;99.90;;;;;;10367745;28;20593;-49
2021/03/28 23:26:04;;;;;;;4.80;0.73;;;9.40;99.90;;;;;;10370000;28;20497;-49
2021/03/28 23:31:25;;;;;;;1.73;0.93;;;9.40;99.90;;;;;;10370442;28;20056;-49
2021/03/28 23:36:46;;;;;;;5.25;2.28;;;9.40;99.90;;;;;;10365404;28;20038;-49
2021/03/28 23:42:09;;;;;;;1.67;0.60;;;9.40;99.90;;;;;;10370297;28;20382;-49
2021/03/28 23:47:32;;;;;;;3.30;1.05;;;9.40;99.90;;;;;;10372335;28;20051;-49
2021/03/28 23:52:57;;;;;;;6.05;0.80;;;9.30;99.90;;;;;;10368738;28;20541;-49
2021/03/28 23:58:20;;;;;;;5.85;0.98;;;9.40;99.90;;;;;;10370848;28;20038;-49
